Time;durP1;ratioP1;P1;durP2;ratioP2;P2;SDS_P1;SDS_P2;PMS_P1;PMS_P2;Temp;Humidity;BMP_temperature;BMP_pressure;BME280_temperature;BME280_humidity;BME280_pressure;Samples;Min_cycle;Max_cycle;Signal;HPM_P1;HPM_P2
2022/03/18 00:01:44;;;;;;;19.95;10.93;;;;;;;7.77;66.89;103154.34;5076972;28;20083;-56
2022/03/18 00:04:30;;;;;;;16.90;10.23;;;;;;;7.93;66.32;103150.91;5074083;28;20095;-57
2022/03/18 00:07:18;;;;;;;20.17;9.45;;;;;;;8.02;65.33;103156.88;5064400;28;20063;-57
2022/03/18 00:10:04;;;;;;;18.17;9.90;;;;;;;7.93;64.90;103150.91;5072122;28;20063;-58
2022/03/18 00:12:53;;;;;;;20.38;10.38;;;;;;;7.74;65.53;103154.81;5073476;28;20079;-57
2022/03/18 00:15:39;;;;;;;24.30;9.23;;;;;;;8.05;65.26;103152.84;5064014;28;20056;-55
2022/03/18 00:18:26;;;;;;;24.23;10.85;;;;;;;8.05;65.26;103159.16;5067202;28;20056;-56
2022/03/18 00:21:12;;;;;;;16.00;9.70;;;;;;;8.22;64.55;103146.41;5074745;28;20071;-55
2022/03/18 00:23:58;;;;;;;21.73;10.50;;;;;;;7.96;65.06;103152.34;5074499;28;20075;-59
2022/03/18 00:26:44;;;;;;;20.20;11.43;;;;;;;7.92;65.56;103151.16;5075854;28;20063;-58
2022/03/18 00:29:31;;;;;;;21.35;10.82;;;;;;;8.31;64.56;103158.72;5074962;28;20075;-59
2022/03/18 00:32:17;;;;;;;23.70;11.65;;;;;;;8.13;64.79;103150.56;5074209;28;20071;-57
2022/03/18 00:35:04;;;;;;;20.45;11.25;;;;;;;8.21;65.04;103157.63;5079477;28;20063;-55
2022/03/18 00:37:50;;;;;;;24.40;11.18;;;;;;;8.12;65.03;103162.63;5099027;28;20051;-55
2022/03/18 00:40:36;;;;;;;19.00;10.48;;;;;;;7.84;66.03;103157.00;5071045;28;20442;-55
2022/03/18 00:43:22;;;;;;;20.70;11.07;;;;;;;7.93;65.86;103161.06;5070467;28;20064;-55
2022/03/18 00:46:08;;;;;;;21.55;11.27;;;;;;;7.95;66.09;103165.22;5074765;28;20067;-57
2022/03/18 00:52:04;;;;;;;23.65;11.43;;;;;;;7.70;66.46;103161.84;5066236;28;20443;-56
2022/03/18 00:54:49;;;;;;;19.70;11.35;;;;;;;7.65;66.97;103164.44;5074077;28;20170;-60
2022/03/18 00:57:35;;;;;;;24.20;12.38;;;;;;;7.76;67.31;103160.91;5072144;28;20067;-62
2022/03/18 01:00:22;;;;;;;22.38;12.80;;;;;;;7.63;67.55;103157.53;5072272;28;20059;-60
2022/03/18 01:03:08;;;;;;;23.17;12.45;;;;;;;7.70;67.40;103159.13;5059166;28;20067;-59
2022/03/18 01:05:54;;;;;;;21.70;11.90;;;;;;;7.50;68.47;103157.72;5074283;28;20146;-59
2022/03/18 01:08:40;;;;;;;28.80;13.73;;;;;;;7.41;68.80;103157.22;5062680;28;20060;-60
2022/03/18 01:11:26;;;;;;;28.23;13.52;;;;;;;7.46;68.53;103165.56;5066947;28;20063;-60
2022/03/18 01:14:12;;;;;;;28.35;14.30;;;;;;;7.20;69.66;103159.66;5071514;28;20068;-61
2022/03/18 01:16:58;;;;;;;24.30;13.93;;;;;;;7.31;70.32;103158.84;5063795;28;20064;-60
2022/03/18 01:19:44;;;;;;;27.15;14.27;;;;;;;7.32;69.62;103168.75;5073421;28;20058;-61
2022/03/18 01:22:30;;;;;;;29.65;14.05;;;;;;;7.55;69.33;103169.66;5066361;28;20059;-60
2022/03/18 01:25:16;;;;;;;24.98;14.65;;;;;;;7.36;69.91;103173.53;5074360;28;20119;-61
2022/03/18 01:28:03;;;;;;;25.23;15.18;;;;;;;7.65;69.34;103169.09;5072660;28;20554;-64
2022/03/18 01:30:49;;;;;;;28.65;15.23;;;;;;;7.78;68.65;103172.47;5074987;28;20059;-61
2022/03/18 01:33:37;;;;;;;24.70;14.75;;;;;;;7.71;68.81;103171.75;5067820;28;20059;-59
2022/03/18 01:36:23;;;;;;;27.42;14.95;;;;;;;7.72;69.58;103167.09;5076170;28;20060;-60
2022/03/18 01:39:08;;;;;;;24.45;15.75;;;;;;;7.89;69.07;103177.16;5061405;28;20060;-61
2022/03/18 01:41:54;;;;;;;25.90;16.92;;;;;;;7.75;69.45;103172.09;5072571;28;20080;-62
2022/03/18 01:44:42;;;;;;;29.42;17.15;;;;;;;7.71;70.01;103170.91;5066707;28;20483;-61
2022/03/18 01:47:28;;;;;;;29.50;16.92;;;;;;;7.56;70.15;103176.84;5071415;28;20060;-62
2022/03/18 01:50:15;;;;;;;30.58;17.25;;;;;;;7.68;70.13;103161.25;5071969;28;20060;-62
2022/03/18 01:53:01;;;;;;;29.92;17.58;;;;;;;7.43;71.03;103167.94;5076115;28;20064;-60
2022/03/18 01:55:47;;;;;;;30.00;17.75;;;;;;;7.77;70.35;103172.72;5079985;28;20150;-63
2022/03/18 01:58:34;;;;;;;28.70;17.73;;;;;;;7.80;70.04;103167.59;5076600;28;20064;-63
2022/03/18 02:01:19;;;;;;;27.20;17.33;;;;;;;7.56;70.40;103176.00;5065792;28;20059;-61
2022/03/18 02:04:06;;;;;;;31.45;17.67;;;;;;;7.62;70.64;103181.38;5064350;28;20055;-60
2022/03/18 02:06:55;;;;;;;27.65;16.90;;;;;;;7.49;70.27;103172.50;5071811;28;20056;-60
2022/03/18 02:09:41;;;;;;;30.70;16.48;;;;;;;7.37;71.10;103177.97;5073135;28;20668;-60
2022/03/18 02:12:27;;;;;;;25.80;16.90;;;;;;;7.50;70.56;103172.28;5065524;28;20056;-59
2022/03/18 02:15:14;;;;;;;32.00;18.15;;;;;;;7.47;70.91;103171.91;5081209;28;20064;-61
2022/03/18 02:18:00;;;;;;;28.33;16.88;;;;;;;7.35;71.13;103173.75;5079553;28;20055;-61
2022/03/18 02:20:46;;;;;;;30.63;17.92;;;;;;;7.38;70.73;103176.88;5076447;28;20056;-61
2022/03/18 02:23:32;;;;;;;30.50;17.02;;;;;;;7.52;70.18;103175.63;5070185;28;20064;-60
2022/03/18 02:26:18;;;;;;;32.03;17.77;;;;;;;7.53;69.98;103176.47;5064881;28;20075;-61
2022/03/18 02:29:04;;;;;;;31.00;16.83;;;;;;;7.41;70.73;103178.34;5074624;28;20063;-61
2022/03/18 02:31:50;;;;;;;31.65;18.30;;;;;;;7.11;71.18;103182.97;5075047;28;20048;-60
2022/03/18 02:34:38;;;;;;;38.53;18.98;;;;;;;6.95;72.30;103173.47;5069123;28;20525;-60
2022/03/18 02:37:24;;;;;;;31.67;18.13;;;;;;;7.18;72.11;103176.34;5078864;28;20072;-59
2022/03/18 02:40:10;;;;;;;29.63;18.88;;;;;;;7.42;71.41;103171.78;5076882;28;20415;-61
2022/03/18 02:42:58;;;;;;;34.22;20.38;;;;;;;7.22;71.48;103169.28;5071884;28;20079;-60
2022/03/18 02:45:44;;;;;;;31.63;19.33;;;;;;;7.29;71.59;103166.44;5067721;28;20063;-61
2022/03/18 02:48:30;;;;;;;34.45;19.50;;;;;;;7.28;71.99;103167.53;5074713;28;20052;-59
2022/03/18 02:51:16;;;;;;;29.40;19.38;;;;;;;7.20;71.63;103167.88;5076689;28;20063;-60
2022/03/18 02:54:02;;;;;;;34.03;19.60;;;;;;;7.41;71.42;103173.66;5068447;28;20070;-60
2022/03/18 02:56:49;;;;;;;31.48;20.02;;;;;;;7.47;71.10;103170.00;5076431;28;20060;-59
2022/03/18 02:59:35;;;;;;;32.67;19.85;;;;;;;7.35;71.09;103173.75;5076004;28;20079;-60
2022/03/18 03:02:21;;;;;;;34.30;20.77;;;;;;;7.48;71.07;103166.19;5100033;28;20051;-60
2022/03/18 03:08:12;;;;;;;32.50;19.42;;;;;;;7.41;70.77;103179.16;5075980;28;20059;-63
2022/03/18 03:10:58;;;;;;;34.95;20.60;;;;;;;7.32;71.52;103180.53;5076041;28;20087;-62
2022/03/18 03:13:44;;;;;;;32.75;19.98;;;;;;;7.39;71.01;103189.50;5092738;28;20553;-60
2022/03/18 03:16:30;;;;;;;33.47;20.23;;;;;;;7.12;71.85;103181.88;5075851;28;20063;-59
2022/03/18 03:19:16;;;;;;;35.65;21.88;;;;;;;7.42;71.61;103185.47;5063149;28;20408;-61
2022/03/18 03:22:02;;;;;;;40.22;21.92;;;;;;;7.44;70.85;103186.09;5073980;28;20064;-60
2022/03/18 03:24:48;;;;;;;41.35;22.10;;;;;;;6.88;72.69;103194.63;5064870;28;20063;-64
2022/03/18 03:27:34;;;;;;;38.60;23.35;;;;;;;6.96;72.49;103212.66;5080730;28;20063;-60
2022/03/18 03:30:20;;;;;;;38.75;23.50;;;;;;;7.00;72.83;103216.59;5075774;28;20055;-61
2022/03/18 03:33:06;;;;;;;35.08;23.13;;;;;;;7.03;72.17;103206.00;5065964;28;20071;-59
2022/03/18 03:35:53;;;;;;;43.65;24.23;;;;;;;6.66;73.86;103207.91;5065627;28;20071;-59
2022/03/18 03:38:39;;;;;;;37.95;23.15;;;;;;;6.84;73.83;103205.19;5074544;28;20625;-60
2022/03/18 03:41:25;;;;;;;44.80;24.85;;;;;;;7.11;72.34;103204.88;5076581;28;20060;-61
2022/03/18 03:44:11;;;;;;;42.90;24.92;;;;;;;7.20;71.53;103198.84;5074707;28;20085;-60
2022/03/18 03:46:57;;;;;;;40.22;25.52;;;;;;;6.97;71.77;103197.88;5080314;28;20068;-60
2022/03/18 03:49:44;;;;;;;38.83;24.10;;;;;;;6.97;71.90;103197.88;5075035;28;20067;-60
2022/03/18 03:52:30;;;;;;;40.30;24.00;;;;;;;7.22;71.24;103191.22;5074601;28;20051;-60
2022/03/18 03:55:16;;;;;;;42.50;25.20;;;;;;;7.21;71.09;103205.16;5079215;28;20059;-60
2022/03/18 03:58:02;;;;;;;32.63;22.30;;;;;;;7.37;70.40;103199.91;5074400;28;20056;-61
2022/03/18 04:00:48;;;;;;;36.35;22.35;;;;;;;7.41;70.00;103200.28;5075127;28;20067;-61
2022/03/18 04:03:34;;;;;;;31.13;20.63;;;;;;;7.15;69.56;103206.91;5061808;28;20062;-59
2022/03/18 04:06:20;;;;;;;30.63;19.70;;;;;;;7.09;69.98;103217.97;5074956;28;20075;-59
2022/03/18 04:09:06;;;;;;;35.60;20.25;;;;;;;6.94;70.73;103223.00;5073126;28;20423;-58
2022/03/18 04:11:52;;;;;;;33.97;19.23;;;;;;;6.60;71.03;103229.91;5075238;28;20522;-61
2022/03/18 04:14:38;;;;;;;33.65;18.58;;;;;;;6.82;70.34;103231.13;5071658;28;20383;-60
2022/03/18 04:17:26;;;;;;;27.73;18.08;;;;;;;6.82;70.25;103228.38;5069049;28;20494;-59
2022/03/18 04:20:14;;;;;;;31.73;18.30;;;;;;;7.10;69.24;103217.72;5078352;28;20060;-62
2022/03/18 04:23:00;;;;;;;26.08;16.27;;;;;;;6.76;70.34;103232.88;5073910;28;20071;-61
2022/03/18 04:25:46;;;;;;;29.08;18.00;;;;;;;6.89;69.85;103215.47;5075037;28;20063;-61
2022/03/18 04:28:32;;;;;;;27.90;18.15;;;;;;;6.82;69.64;103228.38;5073909;28;20071;-59
2022/03/18 04:31:19;;;;;;;28.38;16.95;;;;;;;6.87;69.65;103225.78;5075039;28;20055;-57
2022/03/18 04:34:05;;;;;;;32.80;17.33;;;;;;;6.79;69.58;103237.06;5072209;28;20060;-62
2022/03/18 04:36:51;;;;;;;29.48;17.02;;;;;;;6.55;70.28;103247.00;5070251;28;20059;-61
2022/03/18 04:39:37;;;;;;;31.33;16.20;;;;;;;6.65;70.46;103257.44;5078841;28;20055;-61
2022/03/18 04:42:23;;;;;;;27.38;16.90;;;;;;;6.40;71.14;103253.88;5074274;28;20067;-59
2022/03/18 04:45:09;;;;;;;29.10;16.83;;;;;;;6.46;71.48;103255.72;5077907;28;20426;-61
2022/03/18 04:47:56;;;;;;;28.67;16.10;;;;;;;6.46;71.24;103256.56;5082169;28;20059;-60
2022/03/18 04:50:41;;;;;;;33.20;16.75;;;;;;;6.36;71.12;103263.63;5077126;28;20064;-60
2022/03/18 04:53:28;;;;;;;27.67;16.25;;;;;;;6.32;71.32;103257.75;5068093;28;20052;-58
2022/03/18 04:59:19;;;;;;;29.83;15.32;;;;;;;6.51;70.68;103253.16;5077878;28;20051;-54
2022/03/18 05:02:06;;;;;;;24.73;14.45;;;;;;;6.34;70.50;103257.50;5060543;28;20060;-54
2022/03/18 05:04:53;;;;;;;30.00;15.77;;;;;;;6.23;70.42;103259.06;5072014;28;20471;-55
2022/03/18 05:07:39;;;;;;;26.90;14.40;;;;;;;6.47;70.02;103255.50;5068766;28;20064;-58
2022/03/18 05:10:25;;;;;;;24.92;14.73;;;;;;;6.35;70.64;103251.81;5072256;28;20525;-57
2022/03/18 05:13:12;;;;;;;24.35;14.13;;;;;;;6.35;70.15;103264.66;5079517;28;20075;-60
2022/03/18 05:15:58;;;;;;;26.70;13.20;;;;;;;6.31;69.55;103271.66;5067019;28;20056;-55
2022/03/18 05:18:44;;;;;;;23.17;12.52;;;;;;;6.23;69.58;103274.66;5076934;28;20506;-57
2022/03/18 05:21:30;;;;;;;25.05;12.93;;;;;;;6.31;69.57;103271.66;5078445;28;20055;-59
2022/03/18 05:24:16;;;;;;;24.38;13.05;;;;;;;6.15;69.85;103283.16;5083221;28;20143;-56
2022/03/18 05:27:03;;;;;;;23.55;12.27;;;;;;;6.16;69.79;103285.66;5069515;28;20056;-57
2022/03/18 05:29:50;;;;;;;20.85;11.43;;;;;;;6.18;70.37;103285.44;5068321;28;20095;-59
2022/03/18 05:32:36;;;;;;;21.58;12.45;;;;;;;6.15;69.63;103289.47;5066456;28;20056;-52
2022/03/18 05:35:23;;;;;;;28.02;12.82;;;;;;;5.89;70.29;103286.06;5065053;28;20095;-59
2022/03/18 05:38:08;;;;;;;23.85;12.35;;;;;;;5.91;70.33;103290.22;5076452;28;20526;-58
2022/03/18 05:40:54;;;;;;;27.13;13.20;;;;;;;6.06;69.57;103301.72;5077860;28;20518;-56
2022/03/18 05:43:40;;;;;;;21.42;11.50;;;;;;;6.24;69.06;103304.53;5076756;28;20068;-57
2022/03/18 05:46:27;;;;;;;24.13;12.32;;;;;;;6.18;68.59;103294.47;5077429;28;20051;-52
2022/03/18 05:49:14;;;;;;;20.58;11.18;;;;;;;6.31;68.07;103290.81;5076524;28;20063;-56
2022/03/18 05:52:00;;;;;;;23.02;11.48;;;;;;;6.53;67.91;103305.78;5080401;28;20071;-57
2022/03/18 05:54:45;;;;;;;20.63;11.23;;;;;;;6.43;67.71;103294.50;5076901;28;20068;-56
2022/03/18 05:57:32;;;;;;;22.90;11.35;;;;;;;6.31;67.46;103299.03;5077692;28;20063;-57
2022/03/18 06:00:18;;;;;;;24.05;11.55;;;;;;;6.44;66.58;103290.69;5077304;28;20052;-55
2022/03/18 06:03:04;;;;;;;26.33;11.68;;;;;;;6.42;66.80;103290.91;5064727;28;20055;-57
2022/03/18 06:05:50;;;;;;;23.85;11.18;;;;;;;6.40;66.80;103292.19;5084808;28;20063;-57
2022/03/18 06:11:50;;;;;;;23.08;11.05;;;;;;;6.29;66.26;103292.94;5077089;28;20060;-60
2022/03/18 06:14:36;;;;;;;23.58;10.98;;;;;;;6.49;66.04;103307.28;5062706;28;20103;-55
2022/03/18 06:17:22;;;;;;;21.63;11.30;;;;;;;6.41;65.44;103308.41;5072910;28;20067;-61
2022/03/18 06:20:09;;;;;;;26.27;12.05;;;;;;;6.37;65.53;103314.53;5067757;28;20534;-61
2022/03/18 06:22:55;;;;;;;21.90;10.90;;;;;;;6.26;65.64;103305.16;5076116;28;20060;-56
2022/03/18 06:25:41;;;;;;;24.42;11.30;;;;;;;6.20;66.01;103322.47;5074279;28;20178;-59
2022/03/18 06:28:28;;;;;;;20.80;11.32;;;;;;;6.37;66.21;103306.34;5070808;28;20067;-63
2022/03/18 06:31:14;;;;;;;22.70;12.00;;;;;;;6.31;65.75;103321.75;5069040;28;20391;-60
2022/03/18 06:34:00;;;;;;;17.85;11.50;;;;;;;6.30;65.94;103321.97;5074504;28;20060;-60
2022/03/18 06:36:47;;;;;;;19.92;11.80;;;;;;;6.24;66.26;103325.59;5076072;28;20067;-54
2022/03/18 06:39:34;;;;;;;22.70;11.32;;;;;;;6.28;66.21;103326.81;5062704;28;20055;-56
2022/03/18 06:42:20;;;;;;;28.05;12.45;;;;;;;6.17;66.59;103331.09;5066647;28;20056;-58
2022/03/18 06:45:10;;;;;;;25.02;11.98;;;;;;;6.34;65.72;103329.53;5076763;28;20064;-57
2022/03/18 06:47:56;;;;;;;23.50;11.73;;;;;;;6.33;66.18;103327.84;5074919;28;20067;-56
2022/03/18 06:50:41;;;;;;;23.88;12.10;;;;;;;6.33;65.79;103322.38;5076861;28;20052;-57
2022/03/18 06:53:28;;;;;;;21.27;11.68;;;;;;;6.51;65.39;103321.59;5076398;28;20067;-56
2022/03/18 06:56:13;;;;;;;25.63;12.80;;;;;;;6.54;65.17;103315.66;5074721;28;20066;-58
2022/03/18 06:58:59;;;;;;;23.05;11.77;;;;;;;6.49;65.30;103315.50;5110000;27;20087;-57
2022/03/18 07:01:46;;;;;;;22.67;12.63;;;;;;;6.44;65.16;103307.97;5079929;28;20052;-56
2022/03/18 07:04:32;;;;;;;25.23;12.82;;;;;;;6.29;65.92;103309.34;5076270;28;20273;-55
2022/03/18 07:07:18;;;;;;;21.00;12.20;;;;;;;6.28;65.97;103326.81;5071475;28;20060;-57
2022/03/18 07:10:04;;;;;;;23.02;13.05;;;;;;;6.31;65.87;103326.41;5075721;28;20059;-56
2022/03/18 07:12:50;;;;;;;24.50;13.02;;;;;;;6.44;65.69;103324.41;5075028;28;20063;-59
2022/03/18 07:15:36;;;;;;;26.88;13.80;;;;;;;6.45;65.60;103327.97;5067163;28;20063;-56
2022/03/18 07:18:22;;;;;;;26.48;14.20;;;;;;;6.40;65.38;103339.56;5073514;28;20714;-56
2022/03/18 07:21:08;;;;;;;23.35;13.20;;;;;;;6.56;65.08;103319.88;5074077;28;20048;-57
2022/03/18 07:23:54;;;;;;;25.77;13.60;;;;;;;6.59;64.66;103313.13;5077113;28;20063;-58
2022/03/18 07:26:40;;;;;;;25.25;13.55;;;;;;;6.55;64.58;103320.09;5074241;28;20056;-58
2022/03/18 07:29:25;;;;;;;24.58;13.45;;;;;;;6.59;64.55;103332.28;5075629;28;20525;-55
2022/03/18 07:32:11;;;;;;;21.77;13.05;;;;;;;6.90;68.09;103323.16;5070747;28;20067;-57
2022/03/18 07:34:58;;;;;;;26.88;13.13;;;;;;;7.21;67.36;103321.13;5062791;28;20064;-59
2022/03/18 07:37:44;;;;;;;24.77;13.70;;;;;;;7.12;63.55;103322.50;5078151;28;20058;-59
2022/03/18 07:40:30;;;;;;;25.40;13.18;;;;;;;6.90;63.54;103321.25;5073030;28;20052;-60
2022/03/18 07:43:16;;;;;;;28.45;13.90;;;;;;;6.80;63.65;103319.00;5097162;28;20621;-53
2022/03/18 07:46:03;;;;;;;24.58;13.07;;;;;;;6.70;63.76;103317.84;5078397;28;20246;-56
2022/03/18 07:48:55;;;;;;;27.00;13.60;;;;;;;6.65;64.29;103324.00;5075261;28;20067;-56
2022/03/18 07:51:41;;;;;;;25.52;12.65;;;;;;;6.71;64.19;103328.56;5055139;28;20060;-56
2022/03/18 07:54:27;;;;;;;23.40;13.13;;;;;;;6.87;64.16;103323.59;5075675;28;20521;-56
2022/03/18 07:57:13;;;;;;;22.77;12.90;;;;;;;7.09;63.15;103324.84;5074977;28;20063;-59
2022/03/18 07:59:58;;;;;;;27.73;13.07;;;;;;;7.17;61.84;103335.50;5079761;28;20060;-60
2022/03/18 08:02:47;;;;;;;21.88;12.40;;;;;;;7.31;61.55;103328.81;5084160;28;20081;-60
2022/03/18 08:05:33;;;;;;;26.48;12.95;;;;;;;7.53;61.76;103336.34;5065280;28;20058;-60
2022/03/18 08:08:19;;;;;;;25.17;12.43;;;;;;;7.44;60.91;103329.53;5058274;28;20513;-56
2022/03/18 08:11:05;;;;;;;24.05;12.27;;;;;;;7.36;60.55;103338.03;5070774;28;20395;-58
2022/03/18 08:13:51;;;;;;;23.25;12.95;;;;;;;7.49;61.23;103337.03;5068117;28;20408;-60
2022/03/18 08:16:37;;;;;;;21.58;12.07;;;;;;;7.68;60.48;103335.97;5072551;28;20071;-56
2022/03/18 08:19:24;;;;;;;28.92;11.85;;;;;;;7.76;59.69;103333.72;5074599;28;20067;-58
2022/03/18 08:22:09;;;;;;;24.73;12.25;;;;;;;7.61;58.95;103336.06;5076312;28;20059;-59
2022/03/18 08:24:56;;;;;;;23.08;12.15;;;;;;;7.63;59.69;103341.31;5067104;28;20400;-59
2022/03/18 08:27:42;;;;;;;18.60;11.70;;;;;;;7.85;59.13;103345.22;5067151;28;20059;-57
2022/03/18 08:30:29;;;;;;;28.40;12.82;;;;;;;7.99;58.49;103342.09;5074545;28;20123;-58
2022/03/18 08:33:14;;;;;;;26.92;12.55;;;;;;;8.04;57.88;103346.88;5061128;28;20055;-57
2022/03/18 08:36:00;;;;;;;26.65;12.10;;;;;;;8.11;57.28;103350.34;5074527;28;20067;-60
2022/03/18 08:38:46;;;;;;;28.67;13.10;;;;;;;8.24;56.96;103341.13;5073967;28;20083;-59
2022/03/18 08:41:33;;;;;;;22.98;12.20;;;;;;;8.28;57.22;103347.81;5072301;28;20055;-58
2022/03/18 08:44:19;;;;;;;22.33;11.52;;;;;;;8.23;55.01;103358.66;5065301;28;20419;-56
2022/03/18 08:47:06;;;;;;;24.30;11.57;;;;;;;8.14;55.68;103344.41;5074225;28;20068;-59
2022/03/18 08:49:52;;;;;;;23.50;12.10;;;;;;;8.25;55.67;103349.13;5076565;28;20059;-59
2022/03/18 08:52:39;;;;;;;19.33;10.55;;;;;;;8.39;55.30;103342.34;5077257;28;20557;-58
2022/03/18 08:55:25;;;;;;;26.13;10.40;;;;;;;8.37;54.56;103344.50;5074217;28;20071;-56
2022/03/18 08:58:12;;;;;;;21.55;10.30;;;;;;;8.50;54.69;103337.97;5072723;28;20399;-58
2022/03/18 09:00:58;;;;;;;18.42;10.27;;;;;;;8.68;54.79;103335.94;5078992;28;20063;-57
2022/03/18 09:03:45;;;;;;;23.77;10.77;;;;;;;8.86;53.36;103338.59;5077680;28;20059;-58
2022/03/18 09:06:31;;;;;;;18.30;10.30;;;;;;;8.97;52.75;103332.28;5080397;28;20063;-58
2022/03/18 09:09:17;;;;;;;25.38;9.52;;;;;;;8.83;52.55;103341.00;5075885;28;20083;-57
2022/03/18 09:12:03;;;;;;;20.60;9.90;;;;;;;8.92;52.08;103343.16;5065071;28;20063;-59
2022/03/18 09:14:49;;;;;;;20.27;10.18;;;;;;;8.67;52.30;103353.53;5076377;28;20067;-57
2022/03/18 09:17:35;;;;;;;20.25;9.73;;;;;;;8.81;51.77;103344.00;5079600;28;20075;-56
2022/03/18 09:20:21;;;;;;;19.42;9.70;;;;;;;8.86;50.78;103338.59;5078157;28;20060;-58
2022/03/18 09:23:08;;;;;;;14.73;8.55;;;;;;;8.92;50.59;103337.66;5076484;28;20059;-58
2022/03/18 09:25:54;;;;;;;18.08;8.80;;;;;;;8.93;49.54;103344.81;5078064;28;20063;-58
2022/03/18 09:28:40;;;;;;;23.00;9.88;;;;;;;9.13;49.84;103343.63;5077662;28;20081;-61
2022/03/18 09:31:26;;;;;;;18.63;9.23;;;;;;;9.27;49.14;103345.06;5066597;28;20403;-60
2022/03/18 09:34:12;;;;;;;19.10;8.57;;;;;;;9.14;48.23;103359.88;5078206;28;20067;-58
2022/03/18 09:36:59;;;;;;;18.50;9.15;;;;;;;8.94;47.63;103345.66;5098633;28;20064;-56
2022/03/18 09:39:45;;;;;;;24.17;8.55;;;;;;;9.09;48.01;103346.88;5080020;28;20658;-58
2022/03/18 09:42:56;;;;;;;15.40;8.15;;;;;;;9.29;46.31;103331.91;5075525;28;20085;-56
2022/03/18 09:45:43;;;;;;;17.38;7.85;;;;;;;9.30;45.25;103352.81;5078080;28;20063;-55
2022/03/18 09:48:36;;;;;;;18.80;8.05;;;;;;;9.45;45.69;103339.41;5077279;28;20071;-60
2022/03/18 09:51:22;;;;;;;19.75;8.23;;;;;;;9.70;44.68;103332.53;5077716;28;20534;-58
2022/03/18 09:54:42;;;;;;;;;;;;;;;9.66;43.04;103345.09;5067471;28;20059;-60
2022/03/18 09:57:28;;;;;;;16.25;7.70;;;;;;;9.67;42.63;103338.53;5064144;28;20470;-58
2022/03/18 10:00:15;;;;;;;16.60;7.85;;;;;;;9.75;42.13;103338.13;5076948;28;20515;-60
2022/03/18 10:03:09;;;;;;;14.43;6.38;;;;;;;9.76;41.39;103342.53;5064963;28;20507;-59
2022/03/18 10:05:59;;;;;;;14.50;6.60;;;;;;;9.80;40.37;103345.63;5080242;28;20072;-58
2022/03/18 10:08:52;;;;;;;16.20;7.30;;;;;;;10.00;41.46;103343.31;5066040;28;20067;-61
2022/03/18 10:11:42;;;;;;;12.68;8.63;;;;;;;10.01;41.33;103358.72;5078743;28;20068;-59
2022/03/18 10:14:29;;;;;;;14.57;8.20;;;;;;;10.13;41.50;103329.25;5077925;28;20058;-60
2022/03/18 10:17:15;;;;;;;17.33;7.43;;;;;;;10.12;40.20;103333.09;5075327;28;20064;-61
2022/03/18 10:20:02;;;;;;;15.75;6.78;;;;;;;10.12;40.47;103342.22;5078005;28;20063;-61
2022/03/18 10:22:51;;;;;;;15.27;6.82;;;;;;;10.07;40.67;103332.97;5081328;28;20059;-62
2022/03/18 10:25:50;;;;;;;12.70;6.80;;;;;;;10.06;39.66;103334.88;5070197;28;20067;-61
2022/03/18 10:28:41;;;;;;;13.38;6.88;;;;;;;10.14;40.07;103333.69;5064856;28;20060;-60
2022/03/18 10:31:27;;;;;;;12.82;7.05;;;;;;;10.08;40.21;103318.13;5084836;28;20063;-61
2022/03/18 10:37:19;;;;;;;12.98;6.40;;;;;;;10.26;38.14;103319.84;5077310;28;20063;-61
2022/03/18 10:40:05;;;;;;;16.15;6.47;;;;;;;10.25;37.09;103320.94;5076684;28;20075;-61
2022/03/18 10:42:58;;;;;;;15.43;6.60;;;;;;;10.44;37.32;103309.47;5082591;28;20051;-59
2022/03/18 10:46:05;;;;;;;11.88;6.78;;;;;;;10.54;37.89;103314.28;5076349;28;20087;-62
2022/03/18 10:49:05;;;;;;;10.52;6.53;;;;;;;10.58;38.61;103315.47;5071521;28;20060;-61
2022/03/18 10:51:51;;;;;;;;;;;;;;;10.58;37.30;103302.53;5074665;28;20439;-61
2022/03/18 10:54:38;;;;;;;14.38;6.38;;;;;;;10.74;37.22;103300.84;5072379;28;19924;-61
2022/03/18 10:57:24;;;;;;;11.73;5.47;;;;;;;10.81;33.64;103299.56;5074985;28;20075;-60
2022/03/18 11:00:10;;;;;;;14.02;5.80;;;;;;;10.92;33.46;103295.91;5075627;28;20063;-61
2022/03/18 11:02:58;;;;;;;13.35;5.03;;;;;;;11.00;33.43;103297.41;5070619;28;20064;-61
2022/03/18 11:05:47;;;;;;;12.38;5.97;;;;;;;11.04;33.72;103293.88;5071160;28;20063;-60
2022/03/18 11:08:48;;;;;;;13.32;6.15;;;;;;;11.08;35.26;103311.59;5074149;28;20055;-61
2022/03/18 11:11:34;;;;;;;12.60;6.07;;;;;;;11.01;34.78;103307.31;5075058;28;20051;-62
2022/03/18 11:14:21;;;;;;;16.10;5.57;;;;;;;11.17;34.17;103282.47;5073132;28;20056;-62
2022/03/18 11:17:07;;;;;;;10.50;5.80;;;;;;;11.22;34.30;103289.97;5088321;28;20056;-61
2022/03/18 11:19:54;;;;;;;11.65;6.25;;;;;;;11.24;34.92;103283.09;5077388;28;20056;-62
2022/03/18 11:22:40;;;;;;;11.20;5.78;;;;;;;11.34;35.09;103287.94;5075464;28;20075;-61
2022/03/18 11:25:28;;;;;;;13.95;6.10;;;;;;;11.34;35.01;103301.72;5066125;28;20072;-61
2022/03/18 11:28:19;;;;;;;11.63;6.15;;;;;;;11.27;34.56;103309.34;5062475;28;20515;-63
2022/03/18 11:31:06;;;;;;;16.95;7.03;;;;;;;11.37;34.54;103283.84;5079140;28;20063;-62
2022/03/18 11:34:08;;;;;;;13.57;6.20;;;;;;;11.43;32.86;103275.34;5075784;28;20063;-63
2022/03/18 11:37:10;;;;;;;11.13;5.40;;;;;;;11.51;31.92;103288.69;5069494;28;20415;-62
2022/03/18 11:40:30;;;;;;;14.68;6.03;;;;;;;11.59;30.68;103285.50;5068170;28;20134;-63
2022/03/18 11:43:32;;;;;;;11.63;5.65;;;;;;;11.65;29.77;103281.72;5067837;28;20056;-58
2022/03/18 11:46:21;;;;;;;10.57;5.40;;;;;;;11.69;29.85;103279.28;5074135;28;20167;-59
2022/03/18 11:49:08;;;;;;;9.07;5.30;;;;;;;11.77;29.66;103265.03;5072809;28;20059;-60
2022/03/18 11:51:59;;;;;;;13.80;4.88;;;;;;;11.72;28.59;103281.50;5080762;28;20111;-58
2022/03/18 11:55:00;;;;;;;8.50;4.60;;;;;;;11.75;28.16;103294.81;5067589;28;20056;-57
2022/03/18 11:57:46;;;;;;;10.10;4.70;;;;;;;11.80;28.41;103261.75;5061477;28;20080;-58
2022/03/18 12:00:32;;;;;;;11.00;5.25;;;;;;;11.87;28.55;103271.47;5069739;28;20055;-59
2022/03/18 12:03:22;;;;;;;16.73;5.03;;;;;;;12.08;29.14;103256.78;5073341;28;20605;-60
2022/03/18 12:06:09;;;;;;;11.90;5.43;;;;;;;12.15;29.04;103262.09;5066361;28;20071;-58
2022/03/18 12:09:15;;;;;;;10.43;4.93;;;;;;;12.09;28.56;103277.78;5070574;28;20106;-58
2022/03/18 12:12:17;;;;;;;12.45;5.55;;;;;;;12.17;28.21;103254.38;5074250;28;20118;-58
2022/03/18 12:15:09;;;;;;;8.38;4.50;;;;;;;12.17;28.39;103243.31;5074583;28;20064;-59
2022/03/18 12:17:57;;;;;;;14.05;5.07;;;;;;;12.31;28.42;103237.09;5074376;28;20085;-53
2022/03/18 12:20:43;;;;;;;10.65;5.57;;;;;;;12.28;28.30;103234.88;5073639;28;20427;-58
2022/03/18 12:23:33;;;;;;;12.48;5.57;;;;;;;12.29;29.38;103227.41;5072997;28;20056;-57
2022/03/18 12:26:48;;;;;;;10.43;5.35;;;;;;;12.41;29.28;103217.00;5078291;28;20055;-56
2022/03/18 12:29:35;;;;;;;9.93;5.88;;;;;;;12.53;30.20;103231.47;5079267;28;20059;-56
2022/03/18 12:32:21;;;;;;;14.82;6.75;;;;;;;12.71;30.41;103217.19;5068486;28;20059;-60
2022/03/18 12:35:07;;;;;;;11.68;6.13;;;;;;;12.81;29.72;103217.28;5075062;28;20059;-57
2022/03/18 12:38:04;;;;;;;10.43;6.50;;;;;;;13.05;30.12;103206.63;5064971;28;20059;-60
2022/03/18 12:40:56;;;;;;;13.77;5.78;;;;;;;13.02;28.88;103209.94;5073860;28;20529;-55
2022/03/18 12:43:43;;;;;;;9.65;4.80;;;;;;;12.90;27.75;103204.56;5067210;28;20060;-58
2022/03/18 12:46:31;;;;;;;8.10;4.78;;;;;;;12.95;28.35;103192.72;5060297;28;20102;-59
2022/03/18 12:49:17;;;;;;;9.85;5.35;;;;;;;13.16;29.10;103189.78;5070851;28;20071;-54
2022/03/18 12:52:13;;;;;;;12.13;6.07;;;;;;;13.21;29.98;103195.38;5065426;28;20159;-58
2022/03/18 12:55:04;;;;;;;11.20;5.97;;;;;;;13.01;30.11;103183.34;5066963;28;20131;-59
2022/03/18 12:57:51;;;;;;;13.90;6.00;;;;;;;13.03;30.16;103190.31;5064127;28;20070;-62
2022/03/18 13:00:42;;;;;;;11.93;5.45;;;;;;;13.17;29.11;103174.88;5064002;28;20175;-60
2022/03/18 13:03:29;;;;;;;12.25;5.90;;;;;;;13.26;27.96;103162.19;5060769;28;20056;-57
2022/03/18 13:06:21;;;;;;;7.82;4.50;;;;;;;13.27;27.53;103190.66;5074135;28;20388;-57
2022/03/18 13:09:13;;;;;;;10.40;4.75;;;;;;;13.39;27.41;103167.19;5073015;28;20079;-58